Time;durP1;ratioP1;P1;durP2;ratioP2;P2;SDS_P1;SDS_P2;PMS_P1;PMS_P2;Temp;Humidity;BMP_temperature;BMP_pressure;BME280_temperature;BME280_humidity;BME280_pressure;Samples;Min_cycle;Max_cycle;Signal;HPM_P1;HPM_P2
2022/01/25 00:10:41;;;;;;;;;21.00;19.25;;;;;10.80;38.19;99921.53;6274716;22;108765;-76
2022/01/25 00:24:20;;;;;;;;;22.00;18.00;;;;;10.86;38.39;99905.44;6220435;22;102429;-75
2022/01/25 00:27:24;;;;;;;;;24.75;17.25;;;;;10.87;38.20;99914.41;6303347;22;102457;-75
2022/01/25 00:29:55;;;;;;;;;21.25;17.75;;;;;10.86;38.30;99904.59;6305686;22;102456;-75
2022/01/25 00:32:22;;;;;;;;;21.00;18.00;;;;;10.89;38.17;99906.97;6277773;22;108537;-75
2022/01/25 00:34:50;;;;;;;;;22.50;17.00;;;;;10.88;38.31;99908.81;6306453;22;102068;-75
2022/01/25 00:37:17;;;;;;;;;17.25;14.75;;;;;10.89;38.19;99909.69;6303917;22;102375;-75
2022/01/25 00:39:44;;;;;;;;;19.75;17.50;;;;;10.90;38.30;99906.78;6304175;22;102445;-75
2022/01/25 00:42:11;;;;;;;;;16.00;13.50;;;;;10.90;38.31;99900.53;6302113;22;103994;-75
2022/01/25 00:44:38;;;;;;;;;15.00;12.75;;;;;10.92;38.34;99903.91;6302641;22;102224;-75
2022/01/25 00:47:07;;;;;;;;;23.25;17.25;;;;;10.94;38.24;99900.00;6294589;22;101922;-75
2022/01/25 00:49:37;;;;;;;;;15.00;14.00;;;;;10.98;38.15;99900.53;6304317;22;102164;-75
2022/01/25 00:52:19;;;;;;;;;19.50;17.50;;;;;10.99;38.31;99894.06;6300063;22;103975;-76
2022/01/25 00:54:47;;;;;;;;;19.00;15.50;;;;;11.01;38.18;99886.66;6298716;22;102094;-76
2022/01/25 00:57:15;;;;;;;;;19.75;15.00;;;;;11.03;38.20;99890.03;6299022;22;102401;-75
2022/01/25 00:59:42;;;;;;;;;22.75;16.50;;;;;11.03;38.26;99890.84;6302619;22;102377;-75
2022/01/25 01:02:11;;;;;;;;;19.75;16.50;;;;;11.04;38.16;99900.69;6286089;22;103911;-75
2022/01/25 01:04:41;;;;;;;;;16.25;15.50;;;;;11.05;38.10;99893.41;6269111;22;103895;-75
2022/01/25 01:07:12;;;;;;;;;20.50;14.00;;;;;11.05;38.20;99896.09;6298913;22;102337;-75
2022/01/25 01:09:41;;;;;;;;;18.75;15.25;;;;;11.05;38.03;99890.69;6286879;22;102454;-75
2022/01/25 01:12:15;;;;;;;;;18.75;17.25;;;;;11.04;38.65;99886.28;6299141;22;103990;-75
2022/01/25 01:15:06;;;;;;;;;16.75;13.25;;;;;11.03;38.37;99885.44;6307710;22;102433;-75
2022/01/25 01:35:11;;;;;;;;;13.75;13.75;;;;;10.97;38.33;99882.59;6300669;22;108873;-75
2022/01/25 01:41:20;;;;;;;;;18.75;15.00;;;;;10.95;38.42;99871.09;6277269;22;109018;-75
2022/01/25 01:48:29;;;;;;;;;20.75;14.00;;;;;10.95;38.41;99857.56;6249696;22;105408;-75
2022/01/25 01:51:02;;;;;;;;;13.00;12.50;;;;;10.94;38.54;99847.78;6308349;22;102431;-75
2022/01/25 01:53:30;;;;;;;;;14.50;12.50;;;;;10.91;38.71;99840.81;6298110;22;102458;-75
2022/01/25 01:55:58;;;;;;;;;17.25;13.00;;;;;10.93;38.28;99838.81;6273331;22;103179;-76
2022/01/25 01:58:25;;;;;;;;;15.00;12.50;;;;;10.91;38.52;99838.13;6278685;22;101988;-75
2022/01/25 02:00:52;;;;;;;;;15.75;13.00;;;;;10.90;38.48;99839.13;6258139;22;105233;-75
2022/01/25 02:03:19;;;;;;;;;16.25;14.00;;;;;10.90;38.60;99833.72;6258510;22;102443;-75
2022/01/25 02:05:46;;;;;;;;;14.00;12.50;;;;;10.91;38.68;99831.88;6255021;22;104188;-75
2022/01/25 02:08:13;;;;;;;;;15.00;12.75;;;;;10.90;38.51;99830.16;6255734;22;102407;-75
2022/01/25 02:10:40;;;;;;;;;17.75;14.75;;;;;10.90;38.48;99824.75;6216206;22;102151;-75
2022/01/25 02:13:09;;;;;;;;;16.00;13.75;;;;;10.88;38.44;99818.69;6189234;22;103361;-75
2022/01/25 02:15:37;;;;;;;;;16.50;14.25;;;;;10.87;38.52;99814.28;6260347;22;103020;-75
2022/01/25 02:23:43;;;;;;;;;17.25;12.50;;;;;10.83;38.31;99821.06;6276304;22;102047;-75
2022/01/25 02:26:11;;;;;;;;;16.50;13.25;;;;;10.84;38.62;99812.78;6272457;22;103369;-75
2022/01/25 02:28:40;;;;;;;;;20.00;13.50;;;;;10.83;38.55;99815.66;6271693;22;105078;-75
2022/01/25 02:31:09;;;;;;;;;14.75;13.00;;;;;10.82;38.67;99817.50;6300443;22;102427;-75
2022/01/25 02:33:36;;;;;;;;;16.25;14.50;;;;;10.82;38.55;99819.38;6273498;22;102173;-75
2022/01/25 02:36:06;;;;;;;;;15.75;13.00;;;;;10.82;38.69;99816.66;6272617;22;104818;-75
2022/01/25 02:38:33;;;;;;;;;18.50;13.75;;;;;10.83;38.48;99812.94;6264126;22;102194;-75
2022/01/25 02:41:01;;;;;;;;;16.25;12.75;;;;;10.87;38.46;99806.16;6262093;22;102287;-75
2022/01/25 02:43:28;;;;;;;;;13.75;12.00;;;;;10.88;38.64;99797.03;6273279;22;102015;-75
2022/01/25 02:48:53;;;;;;;;;12.75;11.75;;;;;10.91;38.64;99800.25;6265293;22;102532;-75
2022/01/25 02:51:21;;;;;;;;;17.50;12.50;;;;;10.92;38.52;99807.34;6242311;22;102385;-75
2022/01/25 02:53:48;;;;;;;;;19.00;13.50;;;;;10.95;38.35;99796.16;6271887;22;102070;-75
2022/01/25 02:56:17;;;;;;;;;13.25;12.25;;;;;10.94;38.74;99788.25;6279580;22;103967;-75
2022/01/25 02:58:44;;;;;;;;;13.50;13.25;;;;;10.95;38.52;99789.91;6274987;22;102709;-75
2022/01/25 03:01:11;;;;;;;;;16.50;13.00;;;;;10.96;38.51;99786.19;6303496;22;102228;-75
2022/01/25 03:03:38;;;;;;;;;11.25;8.00;;;;;10.95;38.44;99785.34;6302915;22;102127;-75
2022/01/25 03:06:06;;;;;;;;;16.50;13.00;;;;;10.99;38.59;99786.66;6306511;22;104026;-75
2022/01/25 03:08:34;;;;;;;;;16.75;13.75;;;;;11.01;38.33;99789.22;6305149;22;102965;-75
2022/01/25 03:11:01;;;;;;;;;13.50;11.75;;;;;11.03;39.10;99779.06;6306141;22;101904;-75
2022/01/25 03:13:34;;;;;;;;;12.50;11.25;;;;;11.09;38.43;99775.66;6295013;22;101892;-75
2022/01/25 03:16:06;;;;;;;;;11.00;9.00;;;;;11.11;38.64;99774.47;6305738;22;108245;-75
2022/01/25 03:23:47;;;;;;;;;15.00;13.50;;;;;11.22;38.76;99791.31;6308300;22;102008;-75
2022/01/25 03:26:14;;;;;;;;;13.50;10.50;;;;;11.24;38.32;99779.31;6306065;22;110702;-75
2022/01/25 03:28:42;;;;;;;;;11.00;11.00;;;;;11.25;38.40;99783.72;6300151;22;102592;-75
2022/01/25 03:31:09;;;;;;;;;13.50;11.00;;;;;11.32;38.46;99791.97;6307629;22;102763;-75
2022/01/25 03:33:36;;;;;;;;;15.00;13.00;;;;;11.35;38.45;99786.19;6311393;22;102461;-75
2022/01/25 03:36:04;;;;;;;;;14.75;12.00;;;;;11.36;38.54;99786.00;6304148;22;104095;-75
2022/01/25 03:38:31;;;;;;;;;12.50;11.50;;;;;11.41;38.37;99780.06;6274777;22;102426;-75
2022/01/25 03:40:58;;;;;;;;;9.50;9.25;;;;;11.43;38.22;99775.31;6308853;22;102571;-75
2022/01/25 03:43:25;;;;;;;;;12.00;9.50;;;;;11.43;38.52;99778.88;6301926;22;102485;-75
2022/01/25 03:46:03;;;;;;;;;12.25;9.50;;;;;11.46;38.96;99778.53;6304990;22;102855;-75
2022/01/25 03:50:57;;;;;;;;;13.00;9.75;;;;;11.49;38.70;99767.31;6313808;22;102615;-75
2022/01/25 03:53:24;;;;;;;;;12.25;10.50;;;;;11.52;38.34;99766.13;6280239;22;102365;-75
2022/01/25 03:55:53;;;;;;;;;13.75;12.00;;;;;11.54;38.69;99764.91;6309754;22;104158;-75
2022/01/25 03:58:21;;;;;;;;;14.25;10.50;;;;;11.58;38.45;99771.66;6308716;22;102130;-75
2022/01/25 04:00:49;;;;;;;;;12.00;10.50;;;;;11.61;38.31;99770.47;6306157;22;102620;-75
2022/01/25 04:03:29;;;;;;;;;10.25;9.25;;;;;11.63;37.97;99769.25;6306458;22;102430;-75
2022/01/25 04:05:57;;;;;;;;;11.25;9.00;;;;;11.67;38.37;99766.19;6306564;22;108652;-75
2022/01/25 04:08:24;;;;;;;;;14.25;9.75;;;;;11.67;38.66;99763.47;6310848;22;102316;-75
2022/01/25 04:10:51;;;;;;;;;8.50;7.25;;;;;11.70;38.59;99758.56;6305361;22;102301;-75
2022/01/25 04:13:19;;;;;;;;;9.50;7.25;;;;;11.75;38.22;99766.19;6298026;22;102283;-75
2022/01/25 04:15:47;;;;;;;;;10.75;9.25;;;;;11.74;38.63;99759.06;6297621;22;104108;-75
2022/01/25 04:20:56;;;;;;;;;12.25;10.00;;;;;11.79;38.57;99760.22;6308197;22;104933;-75
2022/01/25 04:26:08;;;;;;;;;12.25;11.25;;;;;11.84;38.34;99746.94;6282057;22;108689;-75
2022/01/25 04:28:35;;;;;;;;;13.75;12.00;;;;;11.86;37.99;99753.03;6308359;22;102885;-76
2022/01/25 04:31:02;;;;;;;;;13.75;12.00;;;;;11.86;38.05;99746.78;6283929;22;102282;-75
2022/01/25 04:33:40;;;;;;;;;10.00;9.75;;;;;11.87;38.17;99748.47;6313091;22;104899;-75
2022/01/25 04:36:54;;;;;;;;;12.75;9.25;;;;;11.87;38.00;99743.91;6307195;22;108727;-75
2022/01/25 04:49:57;;;;;;;;;13.75;12.25;;;;;11.85;38.34;99734.25;6308711;22;102342;-75
2022/01/25 04:52:30;;;;;;;;;12.25;11.50;;;;;11.84;38.17;99725.28;6269904;22;109878;-75
2022/01/25 04:55:10;;;;;;;;;13.50;9.75;;;;;11.86;38.04;99717.81;6302203;22;102081;-75
2022/01/25 05:00:14;;;;;;;;;15.25;9.75;;;;;11.85;38.34;99713.41;6291037;22;102646;-75
2022/01/25 05:02:57;;;;;;;;;14.25;9.50;;;;;11.85;38.57;99724.25;6285699;22;102484;-75
2022/01/25 05:05:33;;;;;;;;;12.50;10.00;;;;;11.83;38.16;99717.34;6306372;22;102101;-75
2022/01/25 05:08:16;;;;;;;;;9.75;9.50;;;;;11.82;38.22;99721.91;6303446;22;108606;-75
2022/01/25 05:11:04;;;;;;;;;10.00;9.25;;;;;11.81;37.69;99714.81;6311525;22;102325;-75
2022/01/25 05:16:15;;;;;;;;;14.00;14.00;;;;;11.79;38.14;99719.59;6306847;22;102395;-75
2022/01/25 05:18:46;;;;;;;;;14.25;10.50;;;;;11.82;38.08;99712.94;6308684;22;103259;-75
2022/01/25 05:23:59;;;;;;;;;8.25;8.00;;;;;11.80;38.24;99712.25;6280729;22;102719;-75
2022/01/25 05:26:26;;;;;;;;;11.00;10.00;;;;;11.77;38.36;99718.91;6275144;22;102162;-74
2022/01/25 05:28:58;;;;;;;;;10.50;9.50;;;;;11.78;38.03;99717.03;6289713;22;109018;-75
2022/01/25 05:31:25;;;;;;;;;14.75;9.50;;;;;11.78;38.07;99722.47;6307997;22;102373;-74
2022/01/25 05:33:52;;;;;;;;;11.00;9.50;;;;;11.77;38.38;99716.19;6302392;22;102258;-75
2022/01/25 05:36:23;;;;;;;;;11.25;9.00;;;;;11.76;37.85;99705.53;6303969;22;102197;-75
2022/01/25 05:38:50;;;;;;;;;6.25;6.00;;;;;11.76;37.78;99710.94;6318698;22;104075;-75
2022/01/25 05:41:17;;;;;;;;;11.75;9.25;;;;;11.73;38.11;99697.78;6320642;22;101826;-75
2022/01/25 05:47:04;;;;;;;;;16.25;10.50;;;;;11.71;38.50;99697.91;6321231;22;101907;-75
2022/01/25 05:49:20;;;;;;;;;9.00;9.00;;;;;11.68;38.50;99695.56;6294819;22;108152;-75
2022/01/25 05:51:47;;;;;;;;;12.50;9.50;;;;;11.68;38.23;99710.97;6325035;22;101994;-75
2022/01/25 05:54:14;;;;;;;;;9.50;8.00;;;;;11.66;38.40;99697.63;6320198;22;101835;-75
2022/01/25 05:56:43;;;;;;;;;10.50;8.25;;;;;11.65;38.30;99695.94;6293489;22;102107;-75
2022/01/25 05:59:10;;;;;;;;;11.50;9.00;;;;;11.60;38.77;99699.19;6319228;22;103329;-75
2022/01/25 06:01:37;;;;;;;;;12.50;10.00;;;;;11.58;38.84;99701.22;6318199;22;101925;-75
2022/01/25 06:04:06;;;;;;;;;9.00;8.00;;;;;11.55;38.87;99706.19;6317914;22;101846;-75
2022/01/25 06:06:33;;;;;;;;;12.25;9.00;;;;;11.54;38.52;99696.34;6318940;22;102066;-74
2022/01/25 06:09:00;;;;;;;;;13.00;10.00;;;;;11.54;38.68;99688.22;6323603;22;103461;-74
2022/01/25 06:11:27;;;;;;;;;13.00;10.50;;;;;11.56;38.85;99680.78;6319081;22;102043;-75
2022/01/25 06:13:54;;;;;;;;;13.50;9.00;;;;;11.57;38.79;99685.19;6317157;22;101990;-75
2022/01/25 06:16:21;;;;;;;;;11.00;8.75;;;;;11.59;38.64;99686.66;6287984;22;101757;-75
2022/01/25 06:18:48;;;;;;;;;12.75;10.00;;;;;11.60;38.71;99666.69;6317292;22;103490;-75
2022/01/25 06:21:15;;;;;;;;;10.75;8.75;;;;;11.63;38.72;99685.28;6315788;22;101729;-75
2022/01/25 06:23:42;;;;;;;;;13.00;9.00;;;;;11.67;38.20;99679.50;6320393;22;102360;-75
2022/01/25 06:26:09;;;;;;;;;12.50;8.75;;;;;11.69;38.83;99685.59;6317003;22;102732;-75
2022/01/25 06:28:36;;;;;;;;;12.50;10.00;;;;;11.71;38.27;99667.28;6316175;22;103325;-75
2022/01/25 06:31:03;;;;;;;;;11.00;9.25;;;;;11.73;38.49;99666.09;6322688;22;101962;-75
2022/01/25 06:33:30;;;;;;;;;9.75;8.00;;;;;11.74;38.95;99656.97;6322022;22;101717;-74
2022/01/25 06:35:58;;;;;;;;;9.75;8.50;;;;;11.78;38.33;99652.84;6321696;22;101916;-75
2022/01/25 06:38:27;;;;;;;;;9.00;8.75;;;;;11.81;38.95;99657.06;6325760;22;103718;-75
2022/01/25 06:40:54;;;;;;;;;8.25;8.00;;;;;11.83;38.65;99661.28;6316558;22;101783;-75
2022/01/25 06:43:21;;;;;;;;;10.00;8.75;;;;;11.85;38.55;99659.22;6311846;22;101712;-75
2022/01/25 06:45:55;;;;;;;;;12.00;10.75;;;;;11.86;38.63;99660.91;6326741;22;102102;-75
2022/01/25 06:48:23;;;;;;;;;10.25;8.75;;;;;11.88;38.41;99652.59;6320997;22;103349;-75
2022/01/25 06:50:50;;;;;;;;;7.75;7.00;;;;;11.90;38.71;99656.81;6297927;22;101589;-75
2022/01/25 06:53:17;;;;;;;;;11.50;9.00;;;;;11.93;38.83;99663.75;6327208;22;101777;-75
2022/01/25 06:55:44;;;;;;;;;12.00;9.00;;;;;11.95;38.83;99667.09;6325904;22;101735;-75
2022/01/25 06:58:11;;;;;;;;;14.00;10.50;;;;;11.97;38.17;99670.47;6326372;22;103513;-74
2022/01/25 07:00:38;;;;;;;;;10.00;9.25;;;;;12.01;38.26;99671.78;6320756;22;101872;-75
2022/01/25 07:03:05;;;;;;;;;14.75;9.75;;;;;12.02;37.94;99657.22;6324075;22;101962;-75
2022/01/25 07:05:33;;;;;;;;;13.00;10.50;;;;;12.03;38.28;99657.00;6332101;22;101800;-75
2022/01/25 07:08:00;;;;;;;;;8.00;7.00;;;;;12.06;38.16;99655.81;6294021;22;108075;-75
2022/01/25 07:10:27;;;;;;;;;10.00;9.50;;;;;12.07;38.27;99661.03;6293600;22;101913;-75
2022/01/25 07:12:54;;;;;;;;;11.00;10.00;;;;;12.09;38.24;99655.44;6325801;22;101675;-74
2022/01/25 07:15:21;;;;;;;;;9.50;8.00;;;;;12.12;38.29;99659.63;6323765;22;102337;-75
2022/01/25 07:17:48;;;;;;;;;10.00;9.75;;;;;12.14;37.92;99657.59;6292929;22;104153;-75
2022/01/25 07:20:15;;;;;;;;;8.25;7.75;;;;;12.17;38.65;99658.06;6324884;22;101844;-74
2022/01/25 07:22:42;;;;;;;;;9.25;9.00;;;;;12.18;38.79;99651.63;6317425;22;102008;-75
2022/01/25 07:25:10;;;;;;;;;11.75;9.75;;;;;12.21;38.17;99648.53;6330050;22;102277;-75
2022/01/25 07:27:37;;;;;;;;;7.75;7.75;;;;;12.22;38.90;99650.22;6290278;22;103297;-75
2022/01/25 07:30:05;;;;;;;;;13.00;9.00;;;;;12.25;38.03;99654.41;6324158;22;102061;-75
2022/01/25 07:32:32;;;;;;;;;12.75;9.25;;;;;12.28;38.06;99654.06;6320556;22;102083;-75
2022/01/25 07:35:12;;;;;;;;;10.00;9.25;;;;;12.29;38.37;99653.84;6287309;22;101834;-75
2022/01/25 07:37:47;;;;;;;;;12.00;9.00;;;;;12.30;37.92;99652.81;6316075;22;103307;-75
2022/01/25 07:40:16;;;;;;;;;8.50;8.00;;;;;12.33;38.12;99652.47;6317120;22;101778;-74
2022/01/25 07:42:46;;;;;;;;;11.25;9.50;;;;;12.36;37.91;99653.97;6299893;22;102372;-74
2022/01/25 07:45:34;;;;;;;;;12.75;10.00;;;;;12.39;38.34;99650.88;6325443;22;102003;-75
2022/01/25 07:48:06;;;;;;;;;11.50;8.50;;;;;12.41;37.93;99652.38;6320727;22;107903;-75
2022/01/25 07:50:37;;;;;;;;;10.00;9.00;;;;;12.44;38.72;99660.13;6320547;22;102614;-75
2022/01/25 07:53:04;;;;;;;;;11.75;8.75;;;;;12.44;37.66;99665.56;6323979;22;101960;-75
2022/01/25 07:55:31;;;;;;;;;9.00;7.00;;;;;12.45;37.86;99659.09;6334227;22;101541;-74
2022/01/25 07:57:58;;;;;;;;;10.75;9.75;;;;;12.48;38.02;99661.44;6296005;22;108822;-75
2022/01/25 08:00:25;;;;;;;;;15.00;9.75;;;;;12.49;38.77;99657.69;6298144;22;101720;-75
2022/01/25 08:02:53;;;;;;;;;13.25;10.00;;;;;12.49;37.91;99660.41;6323704;22;101751;-75
2022/01/25 08:05:34;;;;;;;;;13.75;10.75;;;;;12.55;37.78;99663.41;6194059;22;103447;-74
2022/01/25 08:08:18;;;;;;;;;10.00;8.25;;;;;12.56;37.60;99665.09;6197032;22;101941;-75
2022/01/25 08:10:59;;;;;;;;;9.50;9.25;;;;;12.57;37.76;99664.03;6199192;22;102070;-75
2022/01/25 08:13:38;;;;;;;;;9.50;9.00;;;;;12.61;38.57;99657.25;6194688;22;101833;-75
2022/01/25 08:16:25;;;;;;;;;9.75;9.75;;;;;12.62;38.75;99656.19;6166373;22;102616;-75
2022/01/25 08:18:57;;;;;;;;;10.00;10.00;;;;;12.63;37.64;99652.44;6190615;22;102980;-75
2022/01/25 08:21:41;;;;;;;;;11.75;10.75;;;;;12.65;37.68;99662.09;6187917;22;101862;-75
2022/01/25 08:24:19;;;;;;;;;10.75;7.50;;;;;12.66;37.67;99642.06;6196623;22;101844;-75
2022/01/25 08:27:04;;;;;;;;;9.75;7.50;;;;;12.69;37.71;99651.72;6200322;22;109038;-75
2022/01/25 08:29:49;;;;;;;;;7.25;7.00;;;;;12.71;38.04;99649.63;6188532;22;107186;-75
2022/01/25 08:32:31;;;;;;;;;8.00;5.50;;;;;12.74;38.19;99652.00;6074419;22;102092;-74
2022/01/25 08:35:06;;;;;;;;;8.00;7.50;;;;;12.76;37.98;99661.59;6070507;22;102071;-75
2022/01/25 08:37:39;;;;;;;;;8.00;7.50;;;;;12.79;37.70;99644.94;6163992;22;102139;-75
2022/01/25 08:40:30;;;;;;;;;9.00;9.00;;;;;12.80;37.92;99645.78;6167268;22;111017;-75
2022/01/25 08:43:04;;;;;;;;;8.00;8.00;;;;;12.82;38.11;99650.00;6164212;22;101887;-75
2022/01/25 08:45:32;;;;;;;;;10.75;9.50;;;;;12.82;37.74;99639.16;6166304;22;101696;-75
2022/01/25 08:48:16;;;;;;;;;11.00;8.00;;;;;12.85;38.41;99651.50;6140504;22;101875;-75
2022/01/25 08:50:43;;;;;;;;;11.00;10.50;;;;;12.85;38.37;99654.19;6164140;22;102829;-75
2022/01/25 08:53:30;;;;;;;;;12.00;11.00;;;;;12.87;38.46;99644.84;6138679;22;101885;-75
2022/01/25 08:56:20;;;;;;;;;13.50;11.00;;;;;12.88;38.08;99643.81;6139077;22;102323;-75
2022/01/25 08:59:04;;;;;;;;;14.25;9.25;;;;;12.90;38.08;99633.59;6165292;22;101831;-75
2022/01/25 09:01:30;;;;;;;;;16.25;13.00;;;;;12.92;38.45;99638.84;6165164;22;108085;-75
2022/01/25 09:03:58;;;;;;;;;11.25;10.75;;;;;12.94;37.97;99639.50;6165024;22;101839;-74
2022/01/25 09:06:25;;;;;;;;;13.00;12.25;;;;;12.94;38.48;99642.19;6139215;22;101975;-75
2022/01/25 09:08:52;;;;;;;;;13.75;10.00;;;;;12.97;38.42;99633.66;6172534;22;101982;-75
2022/01/25 09:11:20;;;;;;;;;13.00;10.50;;;;;12.98;38.25;99648.94;6321242;22;104804;-75
2022/01/25 09:13:47;;;;;;;;;10.50;10.25;;;;;13.00;37.67;99644.16;6321665;22;102060;-75
2022/01/25 09:16:14;;;;;;;;;11.50;10.00;;;;;13.02;37.94;99646.66;6288093;22;101715;-75
2022/01/25 09:18:41;;;;;;;;;12.00;10.50;;;;;13.03;37.70;99640.22;6324532;22;101697;-75
2022/01/25 09:21:08;;;;;;;;;10.50;10.50;;;;;13.04;38.19;99650.88;6320711;22;103375;-75
2022/01/25 09:23:35;;;;;;;;;11.25;10.50;;;;;13.05;37.59;99647.16;6327288;22;105153;-75
2022/01/25 09:26:03;;;;;;;;;11.50;10.25;;;;;13.07;37.57;99638.78;6297942;22;101920;-75
2022/01/25 09:28:30;;;;;;;;;11.50;11.00;;;;;13.07;38.31;99636.06;6317591;22;101771;-75
2022/01/25 09:30:57;;;;;;;;;12.50;9.75;;;;;13.09;37.46;99651.16;6325072;22;103422;-75
2022/01/25 09:33:25;;;;;;;;;14.00;12.75;;;;;13.10;38.48;99639.28;6321925;22;102047;-75
2022/01/25 09:35:52;;;;;;;;;14.75;11.25;;;;;13.10;38.13;99644.72;6297596;22;101731;-75
2022/01/25 09:38:19;;;;;;;;;13.75;12.75;;;;;13.12;38.38;99637.22;6272451;22;101777;-75
2022/01/25 09:40:46;;;;;;;;;10.50;10.50;;;;;13.13;37.55;99633.47;6325542;22;103415;-75
2022/01/25 09:43:14;;;;;;;;;15.50;11.00;;;;;13.15;38.41;99634.13;6328124;22;101757;-75
2022/01/25 09:45:41;;;;;;;;;10.75;8.00;;;;;13.16;38.22;99635.81;6328695;22;102150;-75
2022/01/25 09:48:08;;;;;;;;;12.00;9.75;;;;;13.17;37.88;99632.06;6328980;22;101923;-75
2022/01/25 09:50:36;;;;;;;;;16.00;11.00;;;;;13.19;37.59;99631.88;6301269;22;103340;-75
2022/01/25 09:53:04;;;;;;;;;15.75;11.75;;;;;13.19;37.52;99621.84;6295707;22;101878;-75
2022/01/25 09:55:36;;;;;;;;;11.75;9.50;;;;;13.20;37.94;99623.53;6323550;22;102743;-75
2022/01/25 09:58:03;;;;;;;;;12.25;11.00;;;;;13.21;38.33;99614.34;6329852;22;101784;-75
2022/01/25 10:00:31;;;;;;;;;10.00;9.75;;;;;13.24;38.45;99615.81;6298102;22;108910;-75
2022/01/25 10:05:41;;;;;;;;;12.25;12.00;;;;;13.28;37.94;99615.25;6316747;22;101797;-75
2022/01/25 10:08:20;;;;;;;;;13.00;9.75;;;;;13.30;37.99;99612.34;6327354;22;102054;-75
2022/01/25 10:10:55;;;;;;;;;10.00;9.50;;;;;13.31;37.63;99612.16;6329976;22;103387;-75
2022/01/25 10:13:27;;;;;;;;;12.75;9.00;;;;;13.32;37.61;99610.28;6328113;22;101981;-75
2022/01/25 10:16:17;;;;;;;;;13.75;11.75;;;;;13.33;38.01;99615.50;6325840;22;101741;-75
2022/01/25 10:18:52;;;;;;;;;14.25;11.50;;;;;13.34;37.79;99614.47;6322584;22;101596;-75
2022/01/25 10:21:30;;;;;;;;;13.50;10.00;;;;;13.35;37.76;99599.88;6296173;22;103590;-75
2022/01/25 10:24:10;;;;;;;;;14.50;9.00;;;;;13.36;37.48;99590.69;6300589;22;102641;-75
2022/01/25 10:26:47;;;;;;;;;11.50;9.00;;;;;13.38;37.36;99588.59;6324512;22;102031;-75
2022/01/25 10:29:23;;;;;;;;;9.75;9.50;;;;;13.39;37.33;99590.28;6289415;22;102009;-75
2022/01/25 10:31:54;;;;;;;;;15.00;9.75;;;;;13.42;38.25;99588.22;6310880;22;103315;-75
2022/01/25 10:34:45;;;;;;;;;16.00;9.00;;;;;13.42;37.63;99583.59;6308003;22;102843;-75
2022/01/25 10:37:18;;;;;;;;;11.00;8.00;;;;;13.43;37.61;99584.44;6297234;22;102025;-75
2022/01/25 10:39:46;;;;;;;;;11.00;11.00;;;;;13.44;38.47;99580.72;6326567;22;101874;-75
2022/01/25 10:42:24;;;;;;;;;11.25;10.00;;;;;13.47;38.38;99574.88;6298308;22;103322;-75
2022/01/25 10:45:09;;;;;;;;;10.00;10.00;;;;;13.48;37.29;99571.97;6297796;22;101844;-75
2022/01/25 10:47:42;;;;;;;;;12.00;11.50;;;;;13.50;37.97;99571.78;6294379;22;102110;-75
2022/01/25 10:50:12;;;;;;;;;10.25;9.25;;;;;13.51;37.33;99574.28;6294996;22;101855;-75
2022/01/25 10:52:39;;;;;;;;;13.50;10.50;;;;;13.52;38.40;99564.25;6324263;22;103347;-75
2022/01/25 10:55:06;;;;;;;;;13.00;10.75;;;;;13.53;38.05;99564.06;6322371;22;101820;-75
2022/01/25 10:57:34;;;;;;;;;9.50;7.75;;;;;13.54;37.36;99567.63;6325457;22;101992;-75
2022/01/25 11:00:21;;;;;;;;;8.50;8.00;;;;;13.55;38.00;99570.16;6323569;22;102586;-75
2022/01/25 11:02:51;;;;;;;;;12.50;11.25;;;;;13.56;38.37;99560.13;6299759;22;103224;-75
2022/01/25 11:05:19;;;;;;;;;10.00;8.00;;;;;13.57;37.88;99561.78;6325994;22;102091;-75
2022/01/25 11:07:46;;;;;;;;;14.75;12.00;;;;;13.58;37.94;99564.31;6325254;22;101735;-74
2022/01/25 11:10:15;;;;;;;;;14.50;10.50;;;;;13.59;38.17;99557.03;6330817;22;101885;-75
2022/01/25 11:12:48;;;;;;;;;10.50;9.00;;;;;13.60;37.50;99564.16;6316969;22;103322;-75
2022/01/25 11:15:31;;;;;;;;;16.00;14.00;;;;;13.62;38.14;99553.91;6322325;22;101576;-75
2022/01/25 11:17:58;;;;;;;;;9.75;8.25;;;;;13.62;38.29;99548.47;6327241;22;101554;-75
2022/01/25 11:20:25;;;;;;;;;9.00;7.00;;;;;13.63;38.21;99542.00;6318730;22;102096;-75
2022/01/25 11:22:52;;;;;;;;;13.00;11.00;;;;;13.65;37.50;99550.78;6299075;22;103395;-75
2022/01/25 11:25:19;;;;;;;;;15.00;9.75;;;;;13.66;37.85;99537.00;6294396;22;102250;-75
2022/01/25 11:27:46;;;;;;;;;11.50;10.00;;;;;13.68;37.90;99534.09;6268217;22;101737;-75
2022/01/25 11:30:17;;;;;;;;;12.50;10.00;;;;;13.70;37.38;99543.72;6267885;22;101706;-75
2022/01/25 11:32:46;;;;;;;;;11.00;10.00;;;;;13.71;37.52;99544.56;6320214;22;103019;-75
2022/01/25 11:35:14;;;;;;;;;10.50;10.00;;;;;13.73;37.36;99542.50;6292088;22;102452;-75
2022/01/25 11:37:46;;;;;;;;;10.00;8.00;;;;;13.72;38.37;99540.81;6324780;22;101854;-75
2022/01/25 11:40:26;;;;;;;;;11.25;9.50;;;;;13.74;37.79;99541.44;6326195;22;101821;-75
2022/01/25 11:42:56;;;;;;;;;4.25;3.75;;;;;13.74;37.74;99542.28;6319811;22;102932;-75
2022/01/25 11:45:24;;;;;;;;;12.00;9.00;;;;;13.75;38.22;99532.25;6321497;22;101646;-75
2022/01/25 11:47:52;;;;;;;;;11.50;10.25;;;;;13.77;38.09;99527.47;6292237;22;101861;-75
2022/01/25 11:50:19;;;;;;;;;8.25;8.25;;;;;13.77;37.72;99522.03;6322641;22;102664;-75
2022/01/25 11:52:50;;;;;;;;;13.25;11.50;;;;;13.77;37.55;99522.03;6313635;22;103392;-75
2022/01/25 11:55:26;;;;;;;;;13.75;8.00;;;;;13.78;37.89;99518.25;6300886;22;105164;-75
2022/01/25 11:58:16;;;;;;;;;15.00;12.50;;;;;13.79;37.40;99509.91;6318106;22;101717;-75
2022/01/25 12:00:52;;;;;;;;;9.75;8.75;;;;;13.79;37.43;99504.47;6324792;22;101981;-75
2022/01/25 12:03:29;;;;;;;;;10.00;9.25;;;;;13.82;37.62;99505.97;6292240;22;103483;-75
2022/01/25 12:06:13;;;;;;;;;10.50;9.25;;;;;13.81;37.91;99498.84;6315715;22;103051;-75
2022/01/25 12:12:06;;;;;;;;;10.00;9.50;;;;;13.85;37.57;99508.28;6298595;22;101900;-75
2022/01/25 12:14:25;;;;;;;;;13.25;11.50;;;;;13.85;38.10;99508.28;6310634;22;107997;-75
2022/01/25 12:17:02;;;;;;;;;10.25;10.00;;;;;13.87;37.26;99499.94;6327191;22;101791;-75
2022/01/25 12:19:40;;;;;;;;;11.75;8.75;;;;;13.88;37.65;99507.03;6324210;22;101965;-75
2022/01/25 12:22:48;;;;;;;;;10.00;8.75;;;;;13.87;37.78;99506.19;6292678;22;104400;-75
2022/01/25 12:25:30;;;;;;;;;11.50;10.25;;;;;13.89;37.78;99506.84;6323692;22;103317;-75
2022/01/25 12:28:00;;;;;;;;;10.00;8.25;;;;;13.89;37.47;99501.41;6301907;22;101833;-75
2022/01/25 12:30:41;;;;;;;;;15.25;9.50;;;;;13.91;38.19;99501.22;6322544;22;101949;-75
2022/01/25 12:33:22;;;;;;;;;11.75;10.75;;;;;13.92;38.43;99492.00;6293413;22;101758;-75
2022/01/25 12:35:54;;;;;;;;;10.00;10.00;;;;;13.92;38.09;99492.81;6322521;22;103440;-75
2022/01/25 12:38:27;;;;;;;;;10.75;9.00;;;;;13.93;37.62;99488.22;6320458;22;101734;-75
2022/01/25 12:40:55;;;;;;;;;10.75;9.75;;;;;13.94;38.07;99495.34;6324527;22;102046;-75
2022/01/25 12:43:24;;;;;;;;;12.25;9.00;;;;;13.94;37.45;99493.47;6300190;22;101954;-75
2022/01/25 12:45:55;;;;;;;;;9.00;9.00;;;;;13.95;37.62;99489.72;6326333;22;103472;-75
2022/01/25 12:48:46;;;;;;;;;12.75;10.00;;;;;13.96;37.98;99494.09;6296479;22;101903;-75
2022/01/25 12:51:18;;;;;;;;;11.50;10.50;;;;;13.98;38.28;99488.47;6299024;22;101991;-75
2022/01/25 12:53:47;;;;;;;;;10.25;9.75;;;;;13.97;37.96;99484.91;6325015;22;101920;-75
2022/01/25 12:56:22;;;;;;;;;8.00;8.00;;;;;13.98;37.23;99489.31;6297295;22;103332;-75
2022/01/25 12:58:52;;;;;;;;;9.25;9.00;;;;;13.98;38.38;99485.75;6327501;22;101776;-75
2022/01/25 13:01:21;;;;;;;;;15.00;9.75;;;;;13.98;37.59;99474.88;6320418;22;101987;-75
2022/01/25 13:03:50;;;;;;;;;12.75;10.00;;;;;13.98;37.77;99474.88;6328592;22;102080;-75
2022/01/25 13:06:20;;;;;;;;;9.00;8.75;;;;;13.99;37.51;99487.44;6328464;22;103526;-75
2022/01/25 13:08:55;;;;;;;;;10.75;8.75;;;;;13.99;37.36;99482.00;6292797;22;101609;-75